sensor_id;sensor_type;location;lat;lon;timestamp;P1;durP1;ratioP1;P2;durP2;ratioP2
15230;SDS011;32569;51.762;8.564;2022-10-31T00:02:19;7.93;;;6.87;;
15230;SDS011;32569;51.762;8.564;2022-10-31T00:04:46;11.03;;;7.40;;
15230;SDS011;32569;51.762;8.564;2022-10-31T00:07:13;8.73;;;7.27;;
15230;SDS011;32569;51.762;8.564;2022-10-31T00:09:39;10.03;;;7.10;;
15230;SDS011;32569;51.762;8.564;2022-10-31T00:12:06;10.23;;;7.00;;
15230;SDS011;32569;51.762;8.564;2022-10-31T00:14:34;8.83;;;7.03;;
15230;SDS011;32569;51.762;8.564;2022-10-31T00:17:01;10.07;;;7.03;;
15230;SDS011;32569;51.762;8.564;2022-10-31T00:19:28;7.77;;;6.63;;
15230;SDS011;32569;51.762;8.564;2022-10-31T00:21:55;8.33;;;7.00;;
15230;SDS011;32569;51.762;8.564;2022-10-31T00:24:22;9.10;;;7.30;;
15230;SDS011;32569;51.762;8.564;2022-10-31T00:26:48;9.67;;;6.90;;
15230;SDS011;32569;51.762;8.564;2022-10-31T00:29:15;9.17;;;6.97;;
15230;SDS011;32569;51.762;8.564;2022-10-31T00:31:43;8.77;;;6.67;;
15230;SDS011;32569;51.762;8.564;2022-10-31T00:34:10;7.93;;;6.63;;
15230;SDS011;32569;51.762;8.564;2022-10-31T00:36:36;7.00;;;6.33;;
15230;SDS011;32569;51.762;8.564;2022-10-31T00:39:03;8.50;;;7.30;;
15230;SDS011;32569;51.762;8.564;2022-10-31T00:41:30;9.77;;;6.77;;
15230;SDS011;32569;51.762;8.564;2022-10-31T00:43:57;9.53;;;7.00;;
15230;SDS011;32569;51.762;8.564;2022-10-31T00:46:23;9.10;;;6.67;;
15230;SDS011;32569;51.762;8.564;2022-10-31T00:48:51;7.73;;;6.97;;
15230;SDS011;32569;51.762;8.564;2022-10-31T00:51:18;7.70;;;6.80;;
15230;SDS011;32569;51.762;8.564;2022-10-31T00:53:45;7.00;;;6.40;;
15230;SDS011;32569;51.762;8.564;2022-10-31T00:56:12;7.87;;;7.07;;
15230;SDS011;32569;51.762;8.564;2022-10-31T00:58:39;11.37;;;7.80;;
15230;SDS011;32569;51.762;8.564;2022-10-31T01:01:05;7.47;;;6.60;;
15230;SDS011;32569;51.762;8.564;2022-10-31T01:03:32;7.50;;;6.70;;
15230;SDS011;32569;51.762;8.564;2022-10-31T01:06:01;8.80;;;6.33;;
15230;SDS011;32569;51.762;8.564;2022-10-31T01:08:29;8.10;;;6.70;;
15230;SDS011;32569;51.762;8.564;2022-10-31T01:11:00;8.30;;;6.53;;
15230;SDS011;32569;51.762;8.564;2022-10-31T01:13:28;12.47;;;6.57;;
15230;SDS011;32569;51.762;8.564;2022-10-31T01:15:55;9.57;;;7.20;;
15230;SDS011;32569;51.762;8.564;2022-10-31T01:18:22;7.60;;;6.77;;
15230;SDS011;32569;51.762;8.564;2022-10-31T01:20:56;8.87;;;6.50;;
15230;SDS011;32569;51.762;8.564;2022-10-31T01:23:26;9.20;;;6.37;;
15230;SDS011;32569;51.762;8.564;2022-10-31T01:26:03;8.23;;;6.37;;
15230;SDS011;32569;51.762;8.564;2022-10-31T01:28:33;7.47;;;6.30;;
15230;SDS011;32569;51.762;8.564;2022-10-31T01:31:01;8.17;;;7.13;;
15230;SDS011;32569;51.762;8.564;2022-10-31T01:33:29;7.90;;;6.50;;
15230;SDS011;32569;51.762;8.564;2022-10-31T01:35:56;11.33;;;6.80;;
15230;SDS011;32569;51.762;8.564;2022-10-31T01:38:23;7.57;;;6.73;;
15230;SDS011;32569;51.762;8.564;2022-10-31T01:40:51;8.37;;;6.80;;
15230;SDS011;32569;51.762;8.564;2022-10-31T01:43:19;9.23;;;6.63;;
15230;SDS011;32569;51.762;8.564;2022-10-31T01:45:47;7.90;;;6.23;;
15230;SDS011;32569;51.762;8.564;2022-10-31T01:48:20;9.27;;;6.60;;
15230;SDS011;32569;51.762;8.564;2022-10-31T01:50:51;9.47;;;6.77;;
15230;SDS011;32569;51.762;8.564;2022-10-31T01:53:20;9.67;;;7.57;;
15230;SDS011;32569;51.762;8.564;2022-10-31T01:55:48;8.23;;;6.30;;
15230;SDS011;32569;51.762;8.564;2022-10-31T01:58:18;7.03;;;6.33;;
15230;SDS011;32569;51.762;8.564;2022-10-31T02:00:49;9.57;;;6.20;;
15230;SDS011;32569;51.762;8.564;2022-10-31T02:03:19;7.40;;;6.33;;
15230;SDS011;32569;51.762;8.564;2022-10-31T02:05:47;6.70;;;6.10;;
15230;SDS011;32569;51.762;8.564;2022-10-31T02:08:16;7.80;;;6.70;;
15230;SDS011;32569;51.762;8.564;2022-10-31T02:10:46;7.23;;;6.10;;
15230;SDS011;32569;51.762;8.564;2022-10-31T02:13:12;8.27;;;6.57;;
15230;SDS011;32569;51.762;8.564;2022-10-31T02:15:41;9.30;;;8.07;;
15230;SDS011;32569;51.762;8.564;2022-10-31T02:18:10;8.57;;;7.70;;
15230;SDS011;32569;51.762;8.564;2022-10-31T02:20:39;10.17;;;7.77;;
15230;SDS011;32569;51.762;8.564;2022-10-31T02:23:20;8.63;;;7.43;;
15230;SDS011;32569;51.762;8.564;2022-10-31T02:26:22;8.97;;;8.10;;
15230;SDS011;32569;51.762;8.564;2022-10-31T02:29:16;9.23;;;7.80;;
15230;SDS011;32569;51.762;8.564;2022-10-31T02:32:06;8.00;;;7.10;;
15230;SDS011;32569;51.762;8.564;2022-10-31T02:34:41;6.97;;;5.97;;
15230;SDS011;32569;51.762;8.564;2022-10-31T02:37:15;7.60;;;6.87;;
15230;SDS011;32569;51.762;8.564;2022-10-31T02:39:51;10.23;;;7.17;;
15230;SDS011;32569;51.762;8.564;2022-10-31T02:42:25;9.10;;;6.53;;
15230;SDS011;32569;51.762;8.564;2022-10-31T02:44:58;9.83;;;6.93;;
15230;SDS011;32569;51.762;8.564;2022-10-31T02:47:29;8.90;;;6.87;;
15230;SDS011;32569;51.762;8.564;2022-10-31T02:50:01;9.30;;;7.10;;
15230;SDS011;32569;51.762;8.564;2022-10-31T02:52:31;11.77;;;6.93;;
15230;SDS011;32569;51.762;8.564;2022-10-31T02:55:08;9.93;;;7.30;;
15230;SDS011;32569;51.762;8.564;2022-10-31T02:57:36;8.73;;;7.47;;
15230;SDS011;32569;51.762;8.564;2022-10-31T03:00:05;10.83;;;7.30;;
15230;SDS011;32569;51.762;8.564;2022-10-31T03:02:44;10.63;;;7.00;;
15230;SDS011;32569;51.762;8.564;2022-10-31T03:05:24;8.97;;;6.97;;
15230;SDS011;32569;51.762;8.564;2022-10-31T03:08:06;8.70;;;7.60;;
15230;SDS011;32569;51.762;8.564;2022-10-31T03:10:42;10.60;;;7.87;;
15230;SDS011;32569;51.762;8.564;2022-10-31T03:13:15;11.17;;;9.53;;
15230;SDS011;32569;51.762;8.564;2022-10-31T03:15:48;9.70;;;6.77;;
15230;SDS011;32569;51.762;8.564;2022-10-31T03:18:21;11.27;;;8.90;;
15230;SDS011;32569;51.762;8.564;2022-10-31T03:20:55;9.23;;;7.67;;
15230;SDS011;32569;51.762;8.564;2022-10-31T03:23:27;8.60;;;7.20;;
15230;SDS011;32569;51.762;8.564;2022-10-31T03:25:56;12.93;;;8.00;;
15230;SDS011;32569;51.762;8.564;2022-10-31T03:28:27;10.60;;;9.50;;
15230;SDS011;32569;51.762;8.564;2022-10-31T03:30:56;10.17;;;7.63;;
15230;SDS011;32569;51.762;8.564;2022-10-31T03:33:27;10.43;;;8.13;;
15230;SDS011;32569;51.762;8.564;2022-10-31T03:35:57;12.20;;;8.83;;
15230;SDS011;32569;51.762;8.564;2022-10-31T03:38:26;14.87;;;10.00;;
15230;SDS011;32569;51.762;8.564;2022-10-31T03:40:55;11.53;;;8.97;;
15230;SDS011;32569;51.762;8.564;2022-10-31T03:43:26;11.83;;;8.80;;
15230;SDS011;32569;51.762;8.564;2022-10-31T03:45:56;12.03;;;9.10;;
15230;SDS011;32569;51.762;8.564;2022-10-31T03:48:23;14.67;;;8.97;;
15230;SDS011;32569;51.762;8.564;2022-10-31T03:50:54;13.20;;;9.67;;
15230;SDS011;32569;51.762;8.564;2022-10-31T03:53:30;11.97;;;9.33;;
15230;SDS011;32569;51.762;8.564;2022-10-31T03:56:01;10.77;;;9.30;;
15230;SDS011;32569;51.762;8.564;2022-10-31T03:58:32;14.23;;;10.53;;
15230;SDS011;32569;51.762;8.564;2022-10-31T04:01:04;11.10;;;9.47;;
15230;SDS011;32569;51.762;8.564;2022-10-31T04:03:33;12.93;;;8.63;;
15230;SDS011;32569;51.762;8.564;2022-10-31T04:06:04;11.97;;;9.20;;
15230;SDS011;32569;51.762;8.564;2022-10-31T04:08:36;11.57;;;8.77;;
15230;SDS011;32569;51.762;8.564;2022-10-31T04:11:06;11.30;;;8.93;;
15230;SDS011;32569;51.762;8.564;2022-10-31T04:13:35;9.23;;;8.33;;
15230;SDS011;32569;51.762;8.564;2022-10-31T04:16:05;11.23;;;8.73;;
15230;SDS011;32569;51.762;8.564;2022-10-31T04:18:34;9.33;;;8.07;;
15230;SDS011;32569;51.762;8.564;2022-10-31T04:21:01;11.10;;;8.53;;
15230;SDS011;32569;51.762;8.564;2022-10-31T04:23:30;11.37;;;9.03;;
15230;SDS011;32569;51.762;8.564;2022-10-31T04:25:58;9.03;;;8.13;;
15230;SDS011;32569;51.762;8.564;2022-10-31T04:28:24;12.23;;;9.77;;
15230;SDS011;32569;51.762;8.564;2022-10-31T04:30:52;12.53;;;8.67;;
15230;SDS011;32569;51.762;8.564;2022-10-31T04:33:19;9.23;;;7.63;;
15230;SDS011;32569;51.762;8.564;2022-10-31T04:35:46;10.70;;;7.83;;
15230;SDS011;32569;51.762;8.564;2022-10-31T04:38:13;9.83;;;8.30;;
15230;SDS011;32569;51.762;8.564;2022-10-31T04:40:41;12.63;;;9.57;;
15230;SDS011;32569;51.762;8.564;2022-10-31T04:43:08;13.40;;;9.53;;
15230;SDS011;32569;51.762;8.564;2022-10-31T04:45:35;11.67;;;9.20;;
15230;SDS011;32569;51.762;8.564;2022-10-31T04:48:03;15.20;;;10.07;;
15230;SDS011;32569;51.762;8.564;2022-10-31T04:50:30;13.93;;;9.67;;
15230;SDS011;32569;51.762;8.564;2022-10-31T04:52:56;12.43;;;10.23;;
15230;SDS011;32569;51.762;8.564;2022-10-31T04:55:23;13.17;;;9.40;;
15230;SDS011;32569;51.762;8.564;2022-10-31T04:57:51;13.43;;;10.07;;
15230;SDS011;32569;51.762;8.564;2022-10-31T05:00:19;11.83;;;10.00;;
15230;SDS011;32569;51.762;8.564;2022-10-31T05:02:47;13.10;;;10.03;;
15230;SDS011;32569;51.762;8.564;2022-10-31T05:05:15;12.33;;;10.13;;
15230;SDS011;32569;51.762;8.564;2022-10-31T05:07:44;15.87;;;11.13;;
15230;SDS011;32569;51.762;8.564;2022-10-31T05:10:13;13.73;;;11.03;;
15230;SDS011;32569;51.762;8.564;2022-10-31T05:12:45;14.90;;;11.33;;
15230;SDS011;32569;51.762;8.564;2022-10-31T05:15:14;16.90;;;10.93;;
15230;SDS011;32569;51.762;8.564;2022-10-31T05:17:42;13.60;;;9.93;;
15230;SDS011;32569;51.762;8.564;2022-10-31T05:20:09;13.30;;;10.47;;
15230;SDS011;32569;51.762;8.564;2022-10-31T05:22:37;11.77;;;9.83;;
15230;SDS011;32569;51.762;8.564;2022-10-31T05:25:08;13.03;;;10.60;;
15230;SDS011;32569;51.762;8.564;2022-10-31T05:27:37;14.87;;;11.70;;
15230;SDS011;32569;51.762;8.564;2022-10-31T05:30:05;14.10;;;11.07;;
15230;SDS011;32569;51.762;8.564;2022-10-31T05:32:37;15.63;;;10.33;;
15230;SDS011;32569;51.762;8.564;2022-10-31T05:35:05;12.60;;;10.53;;
15230;SDS011;32569;51.762;8.564;2022-10-31T05:37:33;11.73;;;10.27;;
15230;SDS011;32569;51.762;8.564;2022-10-31T05:40:01;11.70;;;10.50;;
15230;SDS011;32569;51.762;8.564;2022-10-31T05:42:28;15.27;;;10.67;;
15230;SDS011;32569;51.762;8.564;2022-10-31T05:44:55;13.37;;;10.07;;
15230;SDS011;32569;51.762;8.564;2022-10-31T05:47:22;13.00;;;10.13;;
15230;SDS011;32569;51.762;8.564;2022-10-31T05:49:50;11.93;;;10.50;;
15230;SDS011;32569;51.762;8.564;2022-10-31T05:52:17;13.13;;;9.63;;
15230;SDS011;32569;51.762;8.564;2022-10-31T05:54:44;11.63;;;9.60;;
15230;SDS011;32569;51.762;8.564;2022-10-31T05:57:11;15.70;;;10.73;;
15230;SDS011;32569;51.762;8.564;2022-10-31T05:59:38;16.77;;;10.97;;
15230;SDS011;32569;51.762;8.564;2022-10-31T06:02:04;15.10;;;11.33;;
15230;SDS011;32569;51.762;8.564;2022-10-31T06:04:31;16.07;;;11.53;;
15230;SDS011;32569;51.762;8.564;2022-10-31T06:06:59;14.87;;;10.63;;
15230;SDS011;32569;51.762;8.564;2022-10-31T06:09:26;15.60;;;11.10;;
15230;SDS011;32569;51.762;8.564;2022-10-31T06:11:52;14.17;;;11.93;;
15230;SDS011;32569;51.762;8.564;2022-10-31T06:14:19;16.27;;;10.87;;
15230;SDS011;32569;51.762;8.564;2022-10-31T06:16:46;13.87;;;11.00;;
15230;SDS011;32569;51.762;8.564;2022-10-31T06:19:13;15.80;;;11.47;;
15230;SDS011;32569;51.762;8.564;2022-10-31T06:21:39;17.20;;;10.67;;
15230;SDS011;32569;51.762;8.564;2022-10-31T06:24:07;18.10;;;11.33;;
15230;SDS011;32569;51.762;8.564;2022-10-31T06:26:34;14.67;;;11.30;;
15230;SDS011;32569;51.762;8.564;2022-10-31T06:29:01;16.70;;;11.87;;
15230;SDS011;32569;51.762;8.564;2022-10-31T06:31:28;17.20;;;12.40;;
15230;SDS011;32569;51.762;8.564;2022-10-31T06:33:54;18.33;;;12.23;;
15230;SDS011;32569;51.762;8.564;2022-10-31T06:36:22;22.80;;;12.07;;
15230;SDS011;32569;51.762;8.564;2022-10-31T06:38:49;15.77;;;11.67;;
15230;SDS011;32569;51.762;8.564;2022-10-31T06:41:17;16.17;;;11.63;;
15230;SDS011;32569;51.762;8.564;2022-10-31T06:43:45;18.43;;;12.27;;
15230;SDS011;32569;51.762;8.564;2022-10-31T06:46:12;17.83;;;12.33;;
15230;SDS011;32569;51.762;8.564;2022-10-31T06:48:40;19.20;;;11.97;;
15230;SDS011;32569;51.762;8.564;2022-10-31T06:51:06;16.30;;;11.83;;
15230;SDS011;32569;51.762;8.564;2022-10-31T06:53:33;16.30;;;12.53;;
15230;SDS011;32569;51.762;8.564;2022-10-31T06:56:00;16.40;;;11.70;;
15230;SDS011;32569;51.762;8.564;2022-10-31T06:58:28;18.57;;;13.83;;
15230;SDS011;32569;51.762;8.564;2022-10-31T07:00:54;17.00;;;13.43;;
15230;SDS011;32569;51.762;8.564;2022-10-31T07:03:24;21.37;;;14.40;;
15230;SDS011;32569;51.762;8.564;2022-10-31T07:05:51;19.33;;;13.73;;
15230;SDS011;32569;51.762;8.564;2022-10-31T07:08:17;20.40;;;15.13;;
15230;SDS011;32569;51.762;8.564;2022-10-31T07:10:50;18.07;;;14.80;;
15230;SDS011;32569;51.762;8.564;2022-10-31T07:13:17;23.20;;;15.60;;
15230;SDS011;32569;51.762;8.564;2022-10-31T07:15:47;23.50;;;15.63;;
15230;SDS011;32569;51.762;8.564;2022-10-31T07:18:14;20.93;;;14.57;;
15230;SDS011;32569;51.762;8.564;2022-10-31T07:20:41;23.80;;;15.50;;
15230;SDS011;32569;51.762;8.564;2022-10-31T07:23:08;24.17;;;16.13;;
15230;SDS011;32569;51.762;8.564;2022-10-31T07:25:35;21.93;;;15.50;;
15230;SDS011;32569;51.762;8.564;2022-10-31T07:28:02;23.03;;;14.73;;
15230;SDS011;32569;51.762;8.564;2022-10-31T07:30:30;23.37;;;15.87;;
15230;SDS011;32569;51.762;8.564;2022-10-31T07:32:58;23.60;;;16.03;;
15230;SDS011;32569;51.762;8.564;2022-10-31T07:35:25;23.47;;;15.97;;
15230;SDS011;32569;51.762;8.564;2022-10-31T07:37:53;23.33;;;16.37;;
15230;SDS011;32569;51.762;8.564;2022-10-31T07:40:21;22.27;;;15.33;;
15230;SDS011;32569;51.762;8.564;2022-10-31T07:42:49;24.03;;;17.30;;
15230;SDS011;32569;51.762;8.564;2022-10-31T07:45:18;23.13;;;17.27;;
15230;SDS011;32569;51.762;8.564;2022-10-31T07:47:46;25.53;;;17.43;;
15230;SDS011;32569;51.762;8.564;2022-10-31T07:50:16;29.13;;;18.30;;
15230;SDS011;32569;51.762;8.564;2022-10-31T07:52:44;23.57;;;18.13;;
15230;SDS011;32569;51.762;8.564;2022-10-31T07:55:11;26.03;;;17.90;;
15230;SDS011;32569;51.762;8.564;2022-10-31T07:57:39;26.93;;;18.73;;
15230;SDS011;32569;51.762;8.564;2022-10-31T08:00:06;29.08;;;20.30;;
15230;SDS011;32569;51.762;8.564;2022-10-31T08:02:35;30.20;;;18.03;;
15230;SDS011;32569;51.762;8.564;2022-10-31T08:05:02;25.30;;;18.43;;
15230;SDS011;32569;51.762;8.564;2022-10-31T08:07:35;26.77;;;18.07;;
15230;SDS011;32569;51.762;8.564;2022-10-31T08:10:02;31.07;;;19.43;;
15230;SDS011;32569;51.762;8.564;2022-10-31T08:12:30;24.67;;;19.27;;
15230;SDS011;32569;51.762;8.564;2022-10-31T08:14:56;30.43;;;19.10;;
15230;SDS011;32569;51.762;8.564;2022-10-31T08:17:23;30.30;;;20.07;;
15230;SDS011;32569;51.762;8.564;2022-10-31T08:19:50;31.30;;;19.73;;
15230;SDS011;32569;51.762;8.564;2022-10-31T08:22:17;32.50;;;20.27;;
15230;SDS011;32569;51.762;8.564;2022-10-31T08:24:45;27.40;;;19.17;;
15230;SDS011;32569;51.762;8.564;2022-10-31T08:27:11;28.60;;;20.10;;
15230;SDS011;32569;51.762;8.564;2022-10-31T08:29:38;30.40;;;22.17;;
15230;SDS011;32569;51.762;8.564;2022-10-31T08:32:05;46.00;;;33.00;;
15230;SDS011;32569;51.762;8.564;2022-10-31T08:34:32;30.00;;;22.03;;
15230;SDS011;32569;51.762;8.564;2022-10-31T08:36:58;32.97;;;23.07;;
15230;SDS011;32569;51.762;8.564;2022-10-31T08:39:25;28.00;;;21.40;;
15230;SDS011;32569;51.762;8.564;2022-10-31T08:41:55;30.50;;;20.70;;
15230;SDS011;32569;51.762;8.564;2022-10-31T08:44:21;32.80;;;21.30;;
15230;SDS011;32569;51.762;8.564;2022-10-31T08:46:48;31.43;;;21.77;;
15230;SDS011;32569;51.762;8.564;2022-10-31T08:49:15;31.27;;;19.93;;
15230;SDS011;32569;51.762;8.564;2022-10-31T08:51:42;32.57;;;22.23;;
15230;SDS011;32569;51.762;8.564;2022-10-31T08:54:08;33.07;;;21.67;;
15230;SDS011;32569;51.762;8.564;2022-10-31T08:56:35;28.37;;;21.63;;
15230;SDS011;32569;51.762;8.564;2022-10-31T08:59:03;35.93;;;22.13;;
15230;SDS011;32569;51.762;8.564;2022-10-31T09:01:30;38.10;;;22.63;;
15230;SDS011;32569;51.762;8.564;2022-10-31T09:03:56;37.97;;;23.00;;
15230;SDS011;32569;51.762;8.564;2022-10-31T09:06:23;32.70;;;22.93;;
15230;SDS011;32569;51.762;8.564;2022-10-31T09:08:50;34.67;;;22.73;;
15230;SDS011;32569;51.762;8.564;2022-10-31T09:11:17;36.77;;;23.70;;
15230;SDS011;32569;51.762;8.564;2022-10-31T09:13:43;36.77;;;24.40;;
15230;SDS011;32569;51.762;8.564;2022-10-31T09:16:11;34.73;;;24.70;;
15230;SDS011;32569;51.762;8.564;2022-10-31T09:18:38;34.70;;;25.07;;
15230;SDS011;32569;51.762;8.564;2022-10-31T09:21:05;33.13;;;23.33;;
15230;SDS011;32569;51.762;8.564;2022-10-31T09:23:31;37.43;;;23.23;;
15230;SDS011;32569;51.762;8.564;2022-10-31T09:25:59;34.87;;;25.00;;
15230;SDS011;32569;51.762;8.564;2022-10-31T09:28:27;36.20;;;25.13;;
15230;SDS011;32569;51.762;8.564;2022-10-31T09:30:54;33.33;;;24.07;;
15230;SDS011;32569;51.762;8.564;2022-10-31T09:33:22;35.77;;;23.73;;
15230;SDS011;32569;51.762;8.564;2022-10-31T09:35:49;33.97;;;23.87;;
15230;SDS011;32569;51.762;8.564;2022-10-31T09:38:17;41.80;;;24.30;;
15230;SDS011;32569;51.762;8.564;2022-10-31T09:40:46;37.97;;;23.97;;
15230;SDS011;32569;51.762;8.564;2022-10-31T09:43:15;33.87;;;24.03;;
15230;SDS011;32569;51.762;8.564;2022-10-31T09:45:53;34.47;;;24.03;;
15230;SDS011;32569;51.762;8.564;2022-10-31T09:48:41;34.73;;;23.37;;
15230;SDS011;32569;51.762;8.564;2022-10-31T09:51:16;37.43;;;24.50;;
15230;SDS011;32569;51.762;8.564;2022-10-31T09:53:48;33.43;;;23.90;;
15230;SDS011;32569;51.762;8.564;2022-10-31T09:56:19;33.33;;;23.97;;
15230;SDS011;32569;51.762;8.564;2022-10-31T09:58:48;33.57;;;23.20;;
15230;SDS011;32569;51.762;8.564;2022-10-31T10:04:14;32.50;;;22.23;;
15230;SDS011;32569;51.762;8.564;2022-10-31T10:06:53;29.50;;;21.60;;
15230;SDS011;32569;51.762;8.564;2022-10-31T10:09:21;33.63;;;23.17;;
15230;SDS011;32569;51.762;8.564;2022-10-31T10:11:54;32.83;;;22.43;;
15230;SDS011;32569;51.762;8.564;2022-10-31T10:14:36;32.70;;;21.27;;
15230;SDS011;32569;51.762;8.564;2022-10-31T10:17:17;30.73;;;20.87;;
15230;SDS011;32569;51.762;8.564;2022-10-31T10:19:56;28.57;;;20.03;;
15230;SDS011;32569;51.762;8.564;2022-10-31T10:22:46;30.47;;;21.30;;
15230;SDS011;32569;51.762;8.564;2022-10-31T10:25:20;29.87;;;20.83;;
15230;SDS011;32569;51.762;8.564;2022-10-31T10:27:50;32.63;;;22.03;;
15230;SDS011;32569;51.762;8.564;2022-10-31T10:30:28;29.00;;;21.63;;
15230;SDS011;32569;51.762;8.564;2022-10-31T10:33:02;31.33;;;21.73;;
15230;SDS011;32569;51.762;8.564;2022-10-31T10:35:36;31.53;;;21.27;;
15230;SDS011;32569;51.762;8.564;2022-10-31T10:38:10;29.10;;;21.27;;
15230;SDS011;32569;51.762;8.564;2022-10-31T10:40:41;34.90;;;22.03;;
15230;SDS011;32569;51.762;8.564;2022-10-31T10:43:15;30.03;;;21.40;;
15230;SDS011;32569;51.762;8.564;2022-10-31T10:45:52;29.53;;;20.53;;
15230;SDS011;32569;51.762;8.564;2022-10-31T10:48:43;28.77;;;20.67;;
15230;SDS011;32569;51.762;8.564;2022-10-31T10:51:18;29.33;;;20.53;;
15230;SDS011;32569;51.762;8.564;2022-10-31T10:53:51;30.93;;;20.97;;
15230;SDS011;32569;51.762;8.564;2022-10-31T10:56:40;33.83;;;20.43;;
15230;SDS011;32569;51.762;8.564;2022-10-31T10:59:12;29.80;;;21.27;;
15230;SDS011;32569;51.762;8.564;2022-10-31T11:01:42;31.43;;;21.47;;
15230;SDS011;32569;51.762;8.564;2022-10-31T11:04:23;27.60;;;20.03;;
15230;SDS011;32569;51.762;8.564;2022-10-31T11:07:02;31.47;;;20.67;;
15230;SDS011;32569;51.762;8.564;2022-10-31T11:09:32;29.50;;;21.40;;
15230;SDS011;32569;51.762;8.564;2022-10-31T11:12:00;29.90;;;20.73;;
15230;SDS011;32569;51.762;8.564;2022-10-31T11:14:34;31.07;;;20.63;;
15230;SDS011;32569;51.762;8.564;2022-10-31T11:17:07;33.97;;;23.13;;
15230;SDS011;32569;51.762;8.564;2022-10-31T11:19:37;29.17;;;22.40;;
15230;SDS011;32569;51.762;8.564;2022-10-31T11:22:12;34.27;;;21.97;;
15230;SDS011;32569;51.762;8.564;2022-10-31T11:24:42;32.13;;;21.53;;
15230;SDS011;32569;51.762;8.564;2022-10-31T11:27:11;36.27;;;23.13;;
15230;SDS011;32569;51.762;8.564;2022-10-31T11:29:41;29.33;;;21.73;;
15230;SDS011;32569;51.762;8.564;2022-10-31T11:32:08;29.23;;;20.63;;
15230;SDS011;32569;51.762;8.564;2022-10-31T11:34:46;27.87;;;18.80;;
15230;SDS011;32569;51.762;8.564;2022-10-31T11:37:17;31.80;;;18.97;;
15230;SDS011;32569;51.762;8.564;2022-10-31T11:39:46;25.90;;;17.07;;
15230;SDS011;32569;51.762;8.564;2022-10-31T11:42:18;22.20;;;15.87;;
15230;SDS011;32569;51.762;8.564;2022-10-31T11:44:47;22.43;;;16.63;;
15230;SDS011;32569;51.762;8.564;2022-10-31T11:47:15;22.10;;;16.10;;
15230;SDS011;32569;51.762;8.564;2022-10-31T11:49:44;19.63;;;15.53;;
15230;SDS011;32569;51.762;8.564;2022-10-31T11:52:15;19.23;;;15.20;;
15230;SDS011;32569;51.762;8.564;2022-10-31T11:54:47;21.03;;;14.33;;
15230;SDS011;32569;51.762;8.564;2022-10-31T11:57:26;18.17;;;14.03;;
15230;SDS011;32569;51.762;8.564;2022-10-31T11:59:56;16.07;;;12.77;;
15230;SDS011;32569;51.762;8.564;2022-10-31T12:02:25;18.33;;;13.37;;
15230;SDS011;32569;51.762;8.564;2022-10-31T12:04:55;19.23;;;12.97;;
15230;SDS011;32569;51.762;8.564;2022-10-31T12:07:28;17.03;;;12.23;;
15230;SDS011;32569;51.762;8.564;2022-10-31T12:09:55;20.33;;;12.87;;
15230;SDS011;32569;51.762;8.564;2022-10-31T12:12:32;18.10;;;11.80;;
15230;SDS011;32569;51.762;8.564;2022-10-31T12:18:03;14.80;;;10.47;;
15230;SDS011;32569;51.762;8.564;2022-10-31T12:20:45;15.27;;;9.77;;
15230;SDS011;32569;51.762;8.564;2022-10-31T12:23:35;12.53;;;9.03;;
15230;SDS011;32569;51.762;8.564;2022-10-31T12:26:13;12.30;;;9.37;;
15230;SDS011;32569;51.762;8.564;2022-10-31T12:28:51;15.77;;;9.00;;
15230;SDS011;32569;51.762;8.564;2022-10-31T12:31:39;12.53;;;8.27;;
15230;SDS011;32569;51.762;8.564;2022-10-31T12:34:34;10.97;;;8.17;;
15230;SDS011;32569;51.762;8.564;2022-10-31T12:37:23;11.27;;;8.63;;
15230;SDS011;32569;51.762;8.564;2022-10-31T12:40:03;16.20;;;8.70;;
15230;SDS011;32569;51.762;8.564;2022-10-31T12:42:53;11.67;;;8.90;;
15230;SDS011;32569;51.762;8.564;2022-10-31T12:45:32;13.37;;;8.83;;
15230;SDS011;32569;51.762;8.564;2022-10-31T12:48:34;10.77;;;9.50;;
15230;SDS011;32569;51.762;8.564;2022-10-31T12:51:32;11.87;;;9.37;;
15230;SDS011;32569;51.762;8.564;2022-10-31T12:57:01;13.63;;;9.47;;
15230;SDS011;32569;51.762;8.564;2022-10-31T12:59:34;13.20;;;10.03;;
15230;SDS011;32569;51.762;8.564;2022-10-31T13:02:10;14.77;;;9.37;;
15230;SDS011;32569;51.762;8.564;2022-10-31T13:04:44;13.10;;;9.40;;
15230;SDS011;32569;51.762;8.564;2022-10-31T13:07:17;13.00;;;9.10;;
15230;SDS011;32569;51.762;8.564;2022-10-31T13:09:50;16.00;;;9.70;;
15230;SDS011;32569;51.762;8.564;2022-10-31T13:12:27;10.40;;;8.77;;
15230;SDS011;32569;51.762;8.564;2022-10-31T13:14:56;12.67;;;10.03;;
15230;SDS011;32569;51.762;8.564;2022-10-31T13:17:27;13.77;;;10.17;;
15230;SDS011;32569;51.762;8.564;2022-10-31T13:20:02;13.93;;;9.10;;
15230;SDS011;32569;51.762;8.564;2022-10-31T13:22:42;13.87;;;9.87;;
15230;SDS011;32569;51.762;8.564;2022-10-31T13:25:13;15.70;;;9.73;;
15230;SDS011;32569;51.762;8.564;2022-10-31T13:27:47;16.67;;;11.10;;
15230;SDS011;32569;51.762;8.564;2022-10-31T13:30:17;13.87;;;9.93;;
15230;SDS011;32569;51.762;8.564;2022-10-31T13:32:47;18.37;;;10.90;;
15230;SDS011;32569;51.762;8.564;2022-10-31T13:35:20;13.47;;;10.27;;
15230;SDS011;32569;51.762;8.564;2022-10-31T13:37:55;14.47;;;10.33;;
15230;SDS011;32569;51.762;8.564;2022-10-31T13:40:32;16.83;;;10.87;;
15230;SDS011;32569;51.762;8.564;2022-10-31T13:43:09;14.60;;;11.33;;
15230;SDS011;32569;51.762;8.564;2022-10-31T13:45:50;15.40;;;10.87;;
15230;SDS011;32569;51.762;8.564;2022-10-31T13:48:20;14.93;;;10.87;;
15230;SDS011;32569;51.762;8.564;2022-10-31T13:51:04;17.77;;;11.23;;
15230;SDS011;32569;51.762;8.564;2022-10-31T13:53:40;14.90;;;11.40;;
15230;SDS011;32569;51.762;8.564;2022-10-31T13:56:14;19.00;;;11.97;;
15230;SDS011;32569;51.762;8.564;2022-10-31T13:58:55;17.00;;;12.60;;
15230;SDS011;32569;51.762;8.564;2022-10-31T14:01:31;13.80;;;11.50;;
15230;SDS011;32569;51.762;8.564;2022-10-31T14:04:00;17.07;;;12.27;;
15230;SDS011;32569;51.762;8.564;2022-10-31T14:06:36;19.20;;;12.77;;
15230;SDS011;32569;51.762;8.564;2022-10-31T14:09:06;16.73;;;12.70;;
15230;SDS011;32569;51.762;8.564;2022-10-31T14:11:45;15.87;;;11.63;;
15230;SDS011;32569;51.762;8.564;2022-10-31T14:14:15;20.07;;;12.53;;
15230;SDS011;32569;51.762;8.564;2022-10-31T14:16:43;15.37;;;12.07;;
15230;SDS011;32569;51.762;8.564;2022-10-31T14:19:14;18.23;;;13.47;;
15230;SDS011;32569;51.762;8.564;2022-10-31T14:21:44;17.83;;;12.00;;
15230;SDS011;32569;51.762;8.564;2022-10-31T14:24:15;18.97;;;12.20;;
15230;SDS011;32569;51.762;8.564;2022-10-31T14:26:59;19.20;;;11.97;;
15230;SDS011;32569;51.762;8.564;2022-10-31T14:29:30;16.33;;;11.53;;
15230;SDS011;32569;51.762;8.564;2022-10-31T14:31:59;18.30;;;12.27;;
15230;SDS011;32569;51.762;8.564;2022-10-31T14:34:36;15.70;;;11.20;;
15230;SDS011;32569;51.762;8.564;2022-10-31T14:37:14;21.70;;;12.43;;
15230;SDS011;32569;51.762;8.564;2022-10-31T14:39:53;19.53;;;12.13;;
15230;SDS011;32569;51.762;8.564;2022-10-31T14:42:35;17.03;;;11.03;;
15230;SDS011;32569;51.762;8.564;2022-10-31T14:45:16;15.20;;;11.33;;
15230;SDS011;32569;51.762;8.564;2022-10-31T14:47:53;15.03;;;11.57;;
15230;SDS011;32569;51.762;8.564;2022-10-31T14:50:35;15.17;;;10.73;;
15230;SDS011;32569;51.762;8.564;2022-10-31T14:53:12;17.47;;;11.43;;
15230;SDS011;32569;51.762;8.564;2022-10-31T14:55:42;16.23;;;11.17;;
15230;SDS011;32569;51.762;8.564;2022-10-31T14:58:12;15.87;;;10.40;;
15230;SDS011;32569;51.762;8.564;2022-10-31T15:00:45;20.77;;;11.80;;